sensor_id;sensor_type;location;lat;lon;timestamp;temperature;humidity
59146;DHT22;44928;53.074;6.646;2023-09-19T00:00:16;15.20;99.90
59146;DHT22;44928;53.074;6.646;2023-09-19T00:02:46;15.10;99.90
59146;DHT22;44928;53.074;6.646;2023-09-19T00:05:12;15.10;99.90
59146;DHT22;44928;53.074;6.646;2023-09-19T00:07:39;15.00;99.90
59146;DHT22;44928;53.074;6.646;2023-09-19T00:10:06;15.00;99.90
59146;DHT22;44928;53.074;6.646;2023-09-19T00:12:35;14.90;99.90
59146;DHT22;44928;53.074;6.646;2023-09-19T00:15:01;14.90;99.90
59146;DHT22;44928;53.074;6.646;2023-09-19T00:17:30;14.90;99.90
59146;DHT22;44928;53.074;6.646;2023-09-19T00:19:57;14.80;99.90
59146;DHT22;44928;53.074;6.646;2023-09-19T00:22:23;14.80;99.90
59146;DHT22;44928;53.074;6.646;2023-09-19T00:24:51;14.70;99.90
59146;DHT22;44928;53.074;6.646;2023-09-19T00:27:17;14.70;99.90
59146;DHT22;44928;53.074;6.646;2023-09-19T00:29:44;14.70;99.90
59146;DHT22;44928;53.074;6.646;2023-09-19T00:32:10;14.70;99.90
59146;DHT22;44928;53.074;6.646;2023-09-19T00:34:36;14.70;99.90
59146;DHT22;44928;53.074;6.646;2023-09-19T00:37:02;14.60;99.90
59146;DHT22;44928;53.074;6.646;2023-09-19T00:39:28;14.60;99.90
59146;DHT22;44928;53.074;6.646;2023-09-19T00:41:57;14.60;99.90
59146;DHT22;44928;53.074;6.646;2023-09-19T00:44:23;14.50;99.90
59146;DHT22;44928;53.074;6.646;2023-09-19T00:46:49;14.50;99.90
59146;DHT22;44928;53.074;6.646;2023-09-19T00:49:16;14.50;99.90
59146;DHT22;44928;53.074;6.646;2023-09-19T00:51:42;14.50;99.90
59146;DHT22;44928;53.074;6.646;2023-09-19T00:54:13;14.50;99.90
59146;DHT22;44928;53.074;6.646;2023-09-19T00:56:44;14.40;99.90
59146;DHT22;44928;53.074;6.646;2023-09-19T00:59:10;14.40;99.90
59146;DHT22;44928;53.074;6.646;2023-09-19T01:01:37;14.40;99.90
59146;DHT22;44928;53.074;6.646;2023-09-19T01:04:06;14.40;99.90
59146;DHT22;44928;53.074;6.646;2023-09-19T01:06:32;14.40;99.90
59146;DHT22;44928;53.074;6.646;2023-09-19T01:08:58;14.40;99.90
59146;DHT22;44928;53.074;6.646;2023-09-19T01:11:37;14.40;99.90
59146;DHT22;44928;53.074;6.646;2023-09-19T01:17:09;14.30;99.90
59146;DHT22;44928;53.074;6.646;2023-09-19T01:22:19;14.20;99.90
59146;DHT22;44928;53.074;6.646;2023-09-19T01:30:40;14.20;99.90
59146;DHT22;44928;53.074;6.646;2023-09-19T01:33:09;14.20;99.90
59146;DHT22;44928;53.074;6.646;2023-09-19T01:35:39;14.20;99.90
59146;DHT22;44928;53.074;6.646;2023-09-19T01:38:07;14.20;99.90
59146;DHT22;44928;53.074;6.646;2023-09-19T01:41:00;14.10;99.90
59146;DHT22;44928;53.074;6.646;2023-09-19T01:43:38;14.10;99.90
59146;DHT22;44928;53.074;6.646;2023-09-19T01:46:21;14.10;99.90
59146;DHT22;44928;53.074;6.646;2023-09-19T01:49:15;14.00;99.90
59146;DHT22;44928;53.074;6.646;2023-09-19T01:52:30;14.00;99.90
59146;DHT22;44928;53.074;6.646;2023-09-19T01:54:51;14.00;99.90
59146;DHT22;44928;53.074;6.646;2023-09-19T01:57:27;13.90;99.90
59146;DHT22;44928;53.074;6.646;2023-09-19T02:00:06;13.90;99.90
59146;DHT22;44928;53.074;6.646;2023-09-19T02:02:37;13.90;99.90
59146;DHT22;44928;53.074;6.646;2023-09-19T02:05:04;13.90;99.90
59146;DHT22;44928;53.074;6.646;2023-09-19T02:07:31;13.80;99.90
59146;DHT22;44928;53.074;6.646;2023-09-19T02:09:58;13.90;99.90
59146;DHT22;44928;53.074;6.646;2023-09-19T02:12:26;13.80;99.90
59146;DHT22;44928;53.074;6.646;2023-09-19T02:14:52;13.80;99.90
59146;DHT22;44928;53.074;6.646;2023-09-19T02:17:17;13.80;99.90
59146;DHT22;44928;53.074;6.646;2023-09-19T02:19:43;13.80;99.90
59146;DHT22;44928;53.074;6.646;2023-09-19T02:22:09;13.70;99.90
59146;DHT22;44928;53.074;6.646;2023-09-19T02:24:37;13.80;99.90
59146;DHT22;44928;53.074;6.646;2023-09-19T02:27:04;13.80;99.90
59146;DHT22;44928;53.074;6.646;2023-09-19T02:29:31;13.70;99.90
59146;DHT22;44928;53.074;6.646;2023-09-19T02:31:56;13.70;99.90
59146;DHT22;44928;53.074;6.646;2023-09-19T02:34:22;13.70;99.90
59146;DHT22;44928;53.074;6.646;2023-09-19T02:36:48;13.70;99.90
59146;DHT22;44928;53.074;6.646;2023-09-19T02:39:14;13.60;99.90
59146;DHT22;44928;53.074;6.646;2023-09-19T02:41:40;13.60;99.90
59146;DHT22;44928;53.074;6.646;2023-09-19T02:44:07;13.60;99.90
59146;DHT22;44928;53.074;6.646;2023-09-19T02:46:34;13.60;99.90
59146;DHT22;44928;53.074;6.646;2023-09-19T02:49:02;13.60;99.90
59146;DHT22;44928;53.074;6.646;2023-09-19T02:51:32;13.60;99.90
59146;DHT22;44928;53.074;6.646;2023-09-19T02:53:59;13.60;99.90
59146;DHT22;44928;53.074;6.646;2023-09-19T02:56:25;13.60;99.90
59146;DHT22;44928;53.074;6.646;2023-09-19T02:58:51;13.60;99.90
59146;DHT22;44928;53.074;6.646;2023-09-19T03:01:17;13.60;99.90
59146;DHT22;44928;53.074;6.646;2023-09-19T03:03:44;13.60;99.90
59146;DHT22;44928;53.074;6.646;2023-09-19T03:06:11;13.60;99.90
59146;DHT22;44928;53.074;6.646;2023-09-19T03:08:38;13.60;99.90
59146;DHT22;44928;53.074;6.646;2023-09-19T03:11:06;13.60;99.90
59146;DHT22;44928;53.074;6.646;2023-09-19T03:13:32;13.60;99.90
59146;DHT22;44928;53.074;6.646;2023-09-19T03:15:58;13.60;99.90
59146;DHT22;44928;53.074;6.646;2023-09-19T03:18:24;13.60;99.90
59146;DHT22;44928;53.074;6.646;2023-09-19T03:20:55;13.60;99.90
59146;DHT22;44928;53.074;6.646;2023-09-19T03:23:22;13.60;99.90
59146;DHT22;44928;53.074;6.646;2023-09-19T03:25:48;13.60;99.90
59146;DHT22;44928;53.074;6.646;2023-09-19T03:28:14;13.60;99.90
59146;DHT22;44928;53.074;6.646;2023-09-19T03:30:41;13.60;99.90
59146;DHT22;44928;53.074;6.646;2023-09-19T03:33:07;13.60;99.90
59146;DHT22;44928;53.074;6.646;2023-09-19T03:35:33;13.60;99.90
59146;DHT22;44928;53.074;6.646;2023-09-19T03:38:00;13.60;99.90
59146;DHT22;44928;53.074;6.646;2023-09-19T03:40:26;13.60;99.90
59146;DHT22;44928;53.074;6.646;2023-09-19T03:42:51;13.50;99.90
59146;DHT22;44928;53.074;6.646;2023-09-19T03:45:17;13.50;99.90
59146;DHT22;44928;53.074;6.646;2023-09-19T03:47:43;13.50;99.90
59146;DHT22;44928;53.074;6.646;2023-09-19T03:50:09;13.50;99.90
59146;DHT22;44928;53.074;6.646;2023-09-19T03:52:41;13.50;99.90
59146;DHT22;44928;53.074;6.646;2023-09-19T03:55:08;13.50;99.90
59146;DHT22;44928;53.074;6.646;2023-09-19T03:57:35;13.50;99.90
59146;DHT22;44928;53.074;6.646;2023-09-19T04:00:02;13.50;99.90
59146;DHT22;44928;53.074;6.646;2023-09-19T04:02:30;13.50;99.90
59146;DHT22;44928;53.074;6.646;2023-09-19T04:04:58;13.50;99.90
59146;DHT22;44928;53.074;6.646;2023-09-19T04:07:24;13.50;99.90
59146;DHT22;44928;53.074;6.646;2023-09-19T04:09:54;13.60;99.90
59146;DHT22;44928;53.074;6.646;2023-09-19T04:12:20;13.50;99.90
59146;DHT22;44928;53.074;6.646;2023-09-19T04:14:46;13.60;99.90
59146;DHT22;44928;53.074;6.646;2023-09-19T04:17:12;13.60;99.90
59146;DHT22;44928;53.074;6.646;2023-09-19T04:19:38;13.60;99.90
59146;DHT22;44928;53.074;6.646;2023-09-19T04:22:04;13.60;99.90
59146;DHT22;44928;53.074;6.646;2023-09-19T04:24:30;13.60;99.90
59146;DHT22;44928;53.074;6.646;2023-09-19T04:26:57;13.60;99.90
59146;DHT22;44928;53.074;6.646;2023-09-19T04:29:25;13.60;99.90
59146;DHT22;44928;53.074;6.646;2023-09-19T04:31:52;13.60;99.90
59146;DHT22;44928;53.074;6.646;2023-09-19T04:34:17;13.70;99.90
59146;DHT22;44928;53.074;6.646;2023-09-19T04:36:43;13.70;99.90
59146;DHT22;44928;53.074;6.646;2023-09-19T04:39:09;13.70;99.90
59146;DHT22;44928;53.074;6.646;2023-09-19T04:41:37;13.70;99.90
59146;DHT22;44928;53.074;6.646;2023-09-19T04:44:06;13.70;99.90
59146;DHT22;44928;53.074;6.646;2023-09-19T04:46:33;13.70;99.90
59146;DHT22;44928;53.074;6.646;2023-09-19T04:48:59;13.70;99.90
59146;DHT22;44928;53.074;6.646;2023-09-19T04:51:26;13.70;99.90
59146;DHT22;44928;53.074;6.646;2023-09-19T04:53:54;13.70;99.90
59146;DHT22;44928;53.074;6.646;2023-09-19T04:56:20;13.70;99.90
59146;DHT22;44928;53.074;6.646;2023-09-19T04:58:46;13.70;99.90
59146;DHT22;44928;53.074;6.646;2023-09-19T05:01:13;13.70;99.90
59146;DHT22;44928;53.074;6.646;2023-09-19T05:03:40;13.70;99.90
59146;DHT22;44928;53.074;6.646;2023-09-19T05:06:06;13.80;99.90
59146;DHT22;44928;53.074;6.646;2023-09-19T05:08:32;13.70;99.90
59146;DHT22;44928;53.074;6.646;2023-09-19T05:10:58;13.70;99.90
59146;DHT22;44928;53.074;6.646;2023-09-19T05:13:24;13.70;99.90
59146;DHT22;44928;53.074;6.646;2023-09-19T05:15:50;13.70;99.90
59146;DHT22;44928;53.074;6.646;2023-09-19T05:18:16;13.70;99.90
59146;DHT22;44928;53.074;6.646;2023-09-19T05:20:42;13.70;99.90
59146;DHT22;44928;53.074;6.646;2023-09-19T05:23:08;13.70;99.90
59146;DHT22;44928;53.074;6.646;2023-09-19T05:25:38;13.70;99.90
59146;DHT22;44928;53.074;6.646;2023-09-19T05:28:09;13.70;99.90
59146;DHT22;44928;53.074;6.646;2023-09-19T05:30:37;13.70;99.90
59146;DHT22;44928;53.074;6.646;2023-09-19T05:33:06;13.70;99.90
59146;DHT22;44928;53.074;6.646;2023-09-19T05:35:33;13.70;99.90
59146;DHT22;44928;53.074;6.646;2023-09-19T05:37:59;13.70;99.90
59146;DHT22;44928;53.074;6.646;2023-09-19T05:40:25;13.70;99.90
59146;DHT22;44928;53.074;6.646;2023-09-19T05:42:51;13.70;99.90
59146;DHT22;44928;53.074;6.646;2023-09-19T05:45:17;13.70;99.90
59146;DHT22;44928;53.074;6.646;2023-09-19T05:47:51;13.70;99.90
59146;DHT22;44928;53.074;6.646;2023-09-19T05:50:21;13.70;99.90
59146;DHT22;44928;53.074;6.646;2023-09-19T05:52:54;13.70;99.90
59146;DHT22;44928;53.074;6.646;2023-09-19T05:55:22;13.70;99.90
59146;DHT22;44928;53.074;6.646;2023-09-19T05:57:52;13.70;99.90
59146;DHT22;44928;53.074;6.646;2023-09-19T06:00:22;13.70;99.90
59146;DHT22;44928;53.074;6.646;2023-09-19T06:02:56;13.70;99.90
59146;DHT22;44928;53.074;6.646;2023-09-19T06:05:23;13.70;99.90
59146;DHT22;44928;53.074;6.646;2023-09-19T06:07:49;13.70;99.90
59146;DHT22;44928;53.074;6.646;2023-09-19T06:10:16;13.80;99.90
59146;DHT22;44928;53.074;6.646;2023-09-19T06:12:43;13.80;99.90
59146;DHT22;44928;53.074;6.646;2023-09-19T06:15:10;13.80;99.90
59146;DHT22;44928;53.074;6.646;2023-09-19T06:17:42;13.80;99.90
59146;DHT22;44928;53.074;6.646;2023-09-19T06:20:08;13.80;99.90
59146;DHT22;44928;53.074;6.646;2023-09-19T06:22:44;13.80;99.90
59146;DHT22;44928;53.074;6.646;2023-09-19T06:25:12;13.80;99.90
59146;DHT22;44928;53.074;6.646;2023-09-19T06:27:39;13.80;99.90
59146;DHT22;44928;53.074;6.646;2023-09-19T06:30:09;13.80;99.90
59146;DHT22;44928;53.074;6.646;2023-09-19T06:32:35;13.80;99.90
59146;DHT22;44928;53.074;6.646;2023-09-19T06:35:01;13.80;99.90
59146;DHT22;44928;53.074;6.646;2023-09-19T06:37:29;13.90;99.90
59146;DHT22;44928;53.074;6.646;2023-09-19T06:39:55;13.80;99.90
59146;DHT22;44928;53.074;6.646;2023-09-19T06:42:22;13.90;99.90
59146;DHT22;44928;53.074;6.646;2023-09-19T06:44:49;13.90;99.90
59146;DHT22;44928;53.074;6.646;2023-09-19T06:47:15;13.90;99.90
59146;DHT22;44928;53.074;6.646;2023-09-19T06:49:42;13.90;99.90
59146;DHT22;44928;53.074;6.646;2023-09-19T06:52:10;13.90;99.90
59146;DHT22;44928;53.074;6.646;2023-09-19T06:54:35;13.90;99.90
59146;DHT22;44928;53.074;6.646;2023-09-19T06:57:01;13.90;99.90
59146;DHT22;44928;53.074;6.646;2023-09-19T06:59:28;13.90;99.90
59146;DHT22;44928;53.074;6.646;2023-09-19T07:01:54;13.90;99.90
59146;DHT22;44928;53.074;6.646;2023-09-19T07:04:20;13.90;99.90
59146;DHT22;44928;53.074;6.646;2023-09-19T07:06:49;14.00;99.90
59146;DHT22;44928;53.074;6.646;2023-09-19T07:09:16;14.00;99.90
59146;DHT22;44928;53.074;6.646;2023-09-19T07:11:42;14.00;99.90
59146;DHT22;44928;53.074;6.646;2023-09-19T07:14:08;14.00;99.90
59146;DHT22;44928;53.074;6.646;2023-09-19T07:16:37;14.00;99.90
59146;DHT22;44928;53.074;6.646;2023-09-19T07:19:05;14.00;99.90
59146;DHT22;44928;53.074;6.646;2023-09-19T07:21:31;14.10;99.90
59146;DHT22;44928;53.074;6.646;2023-09-19T07:24:00;14.00;99.90
59146;DHT22;44928;53.074;6.646;2023-09-19T07:26:26;14.10;99.90
59146;DHT22;44928;53.074;6.646;2023-09-19T07:28:54;14.10;99.90
59146;DHT22;44928;53.074;6.646;2023-09-19T07:31:20;14.10;99.90
59146;DHT22;44928;53.074;6.646;2023-09-19T07:33:48;14.20;99.90
59146;DHT22;44928;53.074;6.646;2023-09-19T07:36:14;14.20;99.90
59146;DHT22;44928;53.074;6.646;2023-09-19T07:38:41;14.20;99.90
59146;DHT22;44928;53.074;6.646;2023-09-19T07:41:08;14.30;99.90
59146;DHT22;44928;53.074;6.646;2023-09-19T07:43:37;14.30;99.90
59146;DHT22;44928;53.074;6.646;2023-09-19T07:46:07;14.30;99.90
59146;DHT22;44928;53.074;6.646;2023-09-19T07:48:37;14.40;99.90
59146;DHT22;44928;53.074;6.646;2023-09-19T07:51:07;14.40;99.90
59146;DHT22;44928;53.074;6.646;2023-09-19T07:53:37;14.50;99.90
59146;DHT22;44928;53.074;6.646;2023-09-19T07:56:07;14.50;99.90
59146;DHT22;44928;53.074;6.646;2023-09-19T07:58:33;14.50;99.90
59146;DHT22;44928;53.074;6.646;2023-09-19T08:01:07;14.60;99.90
59146;DHT22;44928;53.074;6.646;2023-09-19T08:03:36;14.60;99.90
59146;DHT22;44928;53.074;6.646;2023-09-19T08:06:06;14.60;99.90
59146;DHT22;44928;53.074;6.646;2023-09-19T08:08:33;14.70;99.90
59146;DHT22;44928;53.074;6.646;2023-09-19T08:11:06;14.80;99.90
59146;DHT22;44928;53.074;6.646;2023-09-19T08:13:39;14.80;99.90
59146;DHT22;44928;53.074;6.646;2023-09-19T08:16:15;14.80;99.90
59146;DHT22;44928;53.074;6.646;2023-09-19T08:18:41;14.80;99.90
59146;DHT22;44928;53.074;6.646;2023-09-19T08:21:08;14.90;99.90
59146;DHT22;44928;53.074;6.646;2023-09-19T08:23:37;14.80;99.90
59146;DHT22;44928;53.074;6.646;2023-09-19T08:26:05;14.90;99.90
59146;DHT22;44928;53.074;6.646;2023-09-19T08:28:35;14.90;99.90
59146;DHT22;44928;53.074;6.646;2023-09-19T08:31:05;14.90;99.90
59146;DHT22;44928;53.074;6.646;2023-09-19T08:33:32;14.90;99.90
59146;DHT22;44928;53.074;6.646;2023-09-19T08:35:59;14.90;99.90
59146;DHT22;44928;53.074;6.646;2023-09-19T08:38:25;15.00;99.90
59146;DHT22;44928;53.074;6.646;2023-09-19T08:40:58;15.00;99.90
59146;DHT22;44928;53.074;6.646;2023-09-19T08:43:28;15.10;99.90
59146;DHT22;44928;53.074;6.646;2023-09-19T08:46:03;15.10;99.90
59146;DHT22;44928;53.074;6.646;2023-09-19T08:48:31;15.20;99.90
59146;DHT22;44928;53.074;6.646;2023-09-19T08:51:03;15.20;99.90
59146;DHT22;44928;53.074;6.646;2023-09-19T08:53:42;15.30;99.90
59146;DHT22;44928;53.074;6.646;2023-09-19T08:56:17;15.30;99.90
59146;DHT22;44928;53.074;6.646;2023-09-19T08:58:51;15.40;99.90
59146;DHT22;44928;53.074;6.646;2023-09-19T09:01:20;15.40;99.90
59146;DHT22;44928;53.074;6.646;2023-09-19T09:03:56;15.50;99.90
59146;DHT22;44928;53.074;6.646;2023-09-19T09:06:23;15.50;99.90
59146;DHT22;44928;53.074;6.646;2023-09-19T09:08:53;15.60;99.90
59146;DHT22;44928;53.074;6.646;2023-09-19T09:11:19;15.70;99.90
59146;DHT22;44928;53.074;6.646;2023-09-19T09:13:45;15.80;99.90
59146;DHT22;44928;53.074;6.646;2023-09-19T09:16:12;15.80;99.90
59146;DHT22;44928;53.074;6.646;2023-09-19T09:18:39;15.90;99.90
59146;DHT22;44928;53.074;6.646;2023-09-19T09:21:06;15.90;99.90
59146;DHT22;44928;53.074;6.646;2023-09-19T09:23:32;15.90;99.90
59146;DHT22;44928;53.074;6.646;2023-09-19T09:25:59;15.90;99.90
59146;DHT22;44928;53.074;6.646;2023-09-19T09:28:33;16.00;99.90
59146;DHT22;44928;53.074;6.646;2023-09-19T09:31:00;16.10;99.90
59146;DHT22;44928;53.074;6.646;2023-09-19T09:33:28;16.10;99.90
59146;DHT22;44928;53.074;6.646;2023-09-19T09:35:57;16.20;99.90
59146;DHT22;44928;53.074;6.646;2023-09-19T09:38:45;16.30;99.90
59146;DHT22;44928;53.074;6.646;2023-09-19T09:41:12;16.30;99.90
59146;DHT22;44928;53.074;6.646;2023-09-19T09:43:53;16.40;99.90
59146;DHT22;44928;53.074;6.646;2023-09-19T09:46:24;16.40;99.90
59146;DHT22;44928;53.074;6.646;2023-09-19T09:49:03;16.50;99.90
59146;DHT22;44928;53.074;6.646;2023-09-19T09:52:04;16.50;99.90
59146;DHT22;44928;53.074;6.646;2023-09-19T09:54:35;16.60;99.90
59146;DHT22;44928;53.074;6.646;2023-09-19T09:57:10;16.70;99.90
59146;DHT22;44928;53.074;6.646;2023-09-19T10:00:03;16.80;99.90
59146;DHT22;44928;53.074;6.646;2023-09-19T10:02:38;16.80;99.90
59146;DHT22;44928;53.074;6.646;2023-09-19T10:05:15;16.90;99.90
59146;DHT22;44928;53.074;6.646;2023-09-19T10:07:51;17.00;99.90
59146;DHT22;44928;53.074;6.646;2023-09-19T10:10:40;17.10;99.90
59146;DHT22;44928;53.074;6.646;2023-09-19T10:13:11;17.10;99.90
59146;DHT22;44928;53.074;6.646;2023-09-19T10:15:39;17.10;99.90
59146;DHT22;44928;53.074;6.646;2023-09-19T10:18:11;17.10;99.90
59146;DHT22;44928;53.074;6.646;2023-09-19T10:20:45;17.10;99.90
59146;DHT22;44928;53.074;6.646;2023-09-19T10:23:12;17.10;99.90
59146;DHT22;44928;53.074;6.646;2023-09-19T10:25:42;17.20;99.90
59146;DHT22;44928;53.074;6.646;2023-09-19T10:28:10;17.20;99.90
59146;DHT22;44928;53.074;6.646;2023-09-19T10:30:48;17.20;99.90
59146;DHT22;44928;53.074;6.646;2023-09-19T10:33:17;17.30;99.90
59146;DHT22;44928;53.074;6.646;2023-09-19T10:35:44;17.30;99.90
59146;DHT22;44928;53.074;6.646;2023-09-19T10:38:17;17.30;99.90
59146;DHT22;44928;53.074;6.646;2023-09-19T10:40:44;17.30;99.90
59146;DHT22;44928;53.074;6.646;2023-09-19T10:43:16;17.50;99.90
59146;DHT22;44928;53.074;6.646;2023-09-19T10:45:47;17.50;99.90
59146;DHT22;44928;53.074;6.646;2023-09-19T10:48:19;17.60;99.90
59146;DHT22;44928;53.074;6.646;2023-09-19T10:50:50;17.60;99.90
59146;DHT22;44928;53.074;6.646;2023-09-19T10:53:17;17.60;99.90
59146;DHT22;44928;53.074;6.646;2023-09-19T10:56:10;17.60;99.90
59146;DHT22;44928;53.074;6.646;2023-09-19T10:58:43;17.60;99.90
59146;DHT22;44928;53.074;6.646;2023-09-19T11:01:12;17.60;99.90
59146;DHT22;44928;53.074;6.646;2023-09-19T11:03:40;17.70;99.90
59146;DHT22;44928;53.074;6.646;2023-09-19T11:06:16;17.80;99.90
59146;DHT22;44928;53.074;6.646;2023-09-19T11:09:03;17.80;99.90
59146;DHT22;44928;53.074;6.646;2023-09-19T11:11:49;17.90;99.90
59146;DHT22;44928;53.074;6.646;2023-09-19T11:30:35;17.90;99.90
59146;DHT22;44928;53.074;6.646;2023-09-19T11:33:24;17.90;99.90
59146;DHT22;44928;53.074;6.646;2023-09-19T11:36:16;17.90;99.90
59146;DHT22;44928;53.074;6.646;2023-09-19T11:46:30;18.00;99.90
59146;DHT22;44928;53.074;6.646;2023-09-19T11:49:08;18.00;99.90
59146;DHT22;44928;53.074;6.646;2023-09-19T11:51:42;18.00;99.90
59146;DHT22;44928;53.074;6.646;2023-09-19T11:54:13;18.00;99.90
59146;DHT22;44928;53.074;6.646;2023-09-19T11:56:44;18.10;99.90
59146;DHT22;44928;53.074;6.646;2023-09-19T11:59:11;18.10;99.90
59146;DHT22;44928;53.074;6.646;2023-09-19T12:01:51;18.20;99.90
59146;DHT22;44928;53.074;6.646;2023-09-19T12:04:43;18.20;99.90
59146;DHT22;44928;53.074;6.646;2023-09-19T12:07:13;18.30;99.90
59146;DHT22;44928;53.074;6.646;2023-09-19T12:09:43;18.30;99.90
59146;DHT22;44928;53.074;6.646;2023-09-19T12:12:10;18.30;99.90
59146;DHT22;44928;53.074;6.646;2023-09-19T12:14:50;18.30;99.90
59146;DHT22;44928;53.074;6.646;2023-09-19T12:17:19;18.20;99.90
59146;DHT22;44928;53.074;6.646;2023-09-19T12:19:55;18.30;99.90
59146;DHT22;44928;53.074;6.646;2023-09-19T12:22:21;18.20;99.90
59146;DHT22;44928;53.074;6.646;2023-09-19T12:24:47;18.20;99.90
59146;DHT22;44928;53.074;6.646;2023-09-19T12:27:14;18.20;99.90
59146;DHT22;44928;53.074;6.646;2023-09-19T12:29:49;18.10;99.90
59146;DHT22;44928;53.074;6.646;2023-09-19T12:32:15;18.10;99.90
59146;DHT22;44928;53.074;6.646;2023-09-19T12:34:51;18.00;99.90
59146;DHT22;44928;53.074;6.646;2023-09-19T12:37:18;18.00;99.90
59146;DHT22;44928;53.074;6.646;2023-09-19T12:40:07;18.00;99.90
59146;DHT22;44928;53.074;6.646;2023-09-19T12:42:50;18.00;99.90
59146;DHT22;44928;53.074;6.646;2023-09-19T12:45:19;18.10;99.90
59146;DHT22;44928;53.074;6.646;2023-09-19T12:48:22;18.20;99.90
59146;DHT22;44928;53.074;6.646;2023-09-19T12:51:01;18.20;99.90
59146;DHT22;44928;53.074;6.646;2023-09-19T12:53:37;18.30;99.90
59146;DHT22;44928;53.074;6.646;2023-09-19T12:56:10;18.20;99.90
59146;DHT22;44928;53.074;6.646;2023-09-19T12:58:56;18.30;99.90
59146;DHT22;44928;53.074;6.646;2023-09-19T13:01:25;18.30;99.90
59146;DHT22;44928;53.074;6.646;2023-09-19T13:06:46;18.20;99.90
59146;DHT22;44928;53.074;6.646;2023-09-19T13:09:15;18.20;99.90
59146;DHT22;44928;53.074;6.646;2023-09-19T13:11:43;18.20;99.90
59146;DHT22;44928;53.074;6.646;2023-09-19T13:14:22;18.10;99.90
59146;DHT22;44928;53.074;6.646;2023-09-19T13:19:43;18.10;99.90
59146;DHT22;44928;53.074;6.646;2023-09-19T13:22:42;18.10;99.90
59146;DHT22;44928;53.074;6.646;2023-09-19T13:25:13;18.10;99.90
59146;DHT22;44928;53.074;6.646;2023-09-19T13:27:48;18.10;99.90
59146;DHT22;44928;53.074;6.646;2023-09-19T13:30:17;18.10;99.90
59146;DHT22;44928;53.074;6.646;2023-09-19T13:32:44;18.10;99.90
59146;DHT22;44928;53.074;6.646;2023-09-19T13:35:11;18.20;99.90
59146;DHT22;44928;53.074;6.646;2023-09-19T13:37:41;18.20;99.90
59146;DHT22;44928;53.074;6.646;2023-09-19T13:40:11;18.20;99.90
59146;DHT22;44928;53.074;6.646;2023-09-19T13:42:37;18.20;99.90
59146;DHT22;44928;53.074;6.646;2023-09-19T13:45:04;18.20;99.90
59146;DHT22;44928;53.074;6.646;2023-09-19T13:47:36;18.20;99.90
59146;DHT22;44928;53.074;6.646;2023-09-19T13:50:04;18.20;99.90
59146;DHT22;44928;53.074;6.646;2023-09-19T13:52:31;18.20;99.90
59146;DHT22;44928;53.074;6.646;2023-09-19T13:54:58;18.20;99.90
59146;DHT22;44928;53.074;6.646;2023-09-19T13:57:25;18.20;99.90
59146;DHT22;44928;53.074;6.646;2023-09-19T13:59:52;18.10;99.90
59146;DHT22;44928;53.074;6.646;2023-09-19T14:02:21;18.10;99.90
59146;DHT22;44928;53.074;6.646;2023-09-19T14:04:53;18.00;99.90
59146;DHT22;44928;53.074;6.646;2023-09-19T14:07:19;18.00;99.90
59146;DHT22;44928;53.074;6.646;2023-09-19T14:09:46;18.10;99.90
59146;DHT22;44928;53.074;6.646;2023-09-19T14:12:14;18.10;99.90
59146;DHT22;44928;53.074;6.646;2023-09-19T14:14:41;18.10;99.90
59146;DHT22;44928;53.074;6.646;2023-09-19T14:17:07;18.20;99.90
59146;DHT22;44928;53.074;6.646;2023-09-19T14:19:34;18.10;99.90
59146;DHT22;44928;53.074;6.646;2023-09-19T14:22:05;18.10;99.90
59146;DHT22;44928;53.074;6.646;2023-09-19T14:24:33;18.10;99.90
59146;DHT22;44928;53.074;6.646;2023-09-19T14:27:00;18.20;99.90
59146;DHT22;44928;53.074;6.646;2023-09-19T14:29:26;18.20;99.90
59146;DHT22;44928;53.074;6.646;2023-09-19T14:31:52;18.20;99.90
59146;DHT22;44928;53.074;6.646;2023-09-19T14:34:18;18.20;99.90
59146;DHT22;44928;53.074;6.646;2023-09-19T14:36:45;18.20;99.90
59146;DHT22;44928;53.074;6.646;2023-09-19T14:39:11;18.30;99.90
59146;DHT22;44928;53.074;6.646;2023-09-19T14:41:37;18.30;99.90
59146;DHT22;44928;53.074;6.646;2023-09-19T14:44:03;18.30;99.90
59146;DHT22;44928;53.074;6.646;2023-09-19T14:46:30;18.30;99.90
59146;DHT22;44928;53.074;6.646;2023-09-19T14:48:56;18.40;99.90
59146;DHT22;44928;53.074;6.646;2023-09-19T14:51:25;18.40;99.90
59146;DHT22;44928;53.074;6.646;2023-09-19T14:53:51;18.40;99.90
59146;DHT22;44928;53.074;6.646;2023-09-19T14:56:18;18.40;99.90
59146;DHT22;44928;53.074;6.646;2023-09-19T14:58:45;18.40;99.90
59146;DHT22;44928;53.074;6.646;2023-09-19T15:01:13;18.40;99.90
59146;DHT22;44928;53.074;6.646;2023-09-19T15:03:40;18.40;99.90
59146;DHT22;44928;53.074;6.646;2023-09-19T15:06:11;18.40;99.90
59146;DHT22;44928;53.074;6.646;2023-09-19T15:08:40;18.40;99.90
59146;DHT22;44928;53.074;6.646;2023-09-19T15:11:11;18.40;99.90
59146;DHT22;44928;53.074;6.646;2023-09-19T15:13:38;18.40;99.90
59146;DHT22;44928;53.074;6.646;2023-09-19T15:16:08;18.40;99.90
59146;DHT22;44928;53.074;6.646;2023-09-19T15:18:35;18.30;99.90
59146;DHT22;44928;53.074;6.646;2023-09-19T15:21:03;18.30;99.90
59146;DHT22;44928;53.074;6.646;2023-09-19T15:23:34;18.30;99.90
59146;DHT22;44928;53.074;6.646;2023-09-19T15:26:03;18.20;99.90
59146;DHT22;44928;53.074;6.646;2023-09-19T15:28:32;18.10;99.90
59146;DHT22;44928;53.074;6.646;2023-09-19T15:33:32;17.90;99.90
59146;DHT22;44928;53.074;6.646;2023-09-19T15:36:14;17.80;99.90
59146;DHT22;44928;53.074;6.646;2023-09-19T15:39:03;17.70;99.90
59146;DHT22;44928;53.074;6.646;2023-09-19T15:41:40;17.70;99.90
59146;DHT22;44928;53.074;6.646;2023-09-19T15:44:14;17.60;99.90
59146;DHT22;44928;53.074;6.646;2023-09-19T15:46:41;17.60;99.90
59146;DHT22;44928;53.074;6.646;2023-09-19T15:49:07;17.60;99.90
59146;DHT22;44928;53.074;6.646;2023-09-19T15:51:34;17.60;99.90
59146;DHT22;44928;53.074;6.646;2023-09-19T15:54:02;17.60;99.90
59146;DHT22;44928;53.074;6.646;2023-09-19T15:56:33;17.60;99.90
59146;DHT22;44928;53.074;6.646;2023-09-19T15:59:00;17.60;99.90
59146;DHT22;44928;53.074;6.646;2023-09-19T16:01:26;17.60;99.90
59146;DHT22;44928;53.074;6.646;2023-09-19T16:03:53;17.60;99.90
59146;DHT22;44928;53.074;6.646;2023-09-19T16:06:27;17.60;99.90
59146;DHT22;44928;53.074;6.646;2023-09-19T16:08:55;17.50;99.90
59146;DHT22;44928;53.074;6.646;2023-09-19T16:11:22;17.50;99.90
59146;DHT22;44928;53.074;6.646;2023-09-19T16:13:49;17.50;99.90
59146;DHT22;44928;53.074;6.646;2023-09-19T16:16:16;17.50;99.90
59146;DHT22;44928;53.074;6.646;2023-09-19T16:18:46;17.50;99.90
59146;DHT22;44928;53.074;6.646;2023-09-19T16:21:13;17.40;99.90
59146;DHT22;44928;53.074;6.646;2023-09-19T16:23:39;17.40;99.90
59146;DHT22;44928;53.074;6.646;2023-09-19T16:26:07;17.40;99.90
59146;DHT22;44928;53.074;6.646;2023-09-19T16:28:35;17.30;99.90